Time;durP1;ratioP1;P1;durP2;ratioP2;P2;SDS_P1;SDS_P2;PMS_P1;PMS_P2;Temp;Humidity;BMP_temperature;BMP_pressure;BME280_temperature;BME280_humidity;BME280_pressure;Samples;Min_cycle;Max_cycle;Signal;HPM_P1;HPM_P2
2023/04/25 00:01:23;;;;;;;12.75;10.48;;;12.10;99.90;;;;;;5049287;28;19937;-90
2023/04/25 00:03:49;;;;;;;;;;;12.10;99.90;;;;;;5034194;28;20021;-88
2023/04/25 00:06:15;;;;;;;11.50;9.00;;;12.10;99.90;;;;;;5033851;28;19928;-88
2023/04/25 00:08:40;;;;;;;;;;;12.10;99.90;;;;;;5033021;28;20079;-89
2023/04/25 00:11:06;;;;;;;14.95;10.10;;;12.00;99.90;;;;;;5049129;28;20361;-90
2023/04/25 00:13:31;;;;;;;;;;;11.90;99.90;;;;;;5049274;28;20486;-88
2023/04/25 00:15:57;;;;;;;11.05;9.07;;;11.90;99.90;;;;;;5048879;28;19905;-86
2023/04/25 00:18:23;;;;;;;;;;;11.80;99.90;;;;;;5032110;28;20026;-88
2023/04/25 00:20:49;;;;;;;11.40;9.27;;;11.80;99.90;;;;;;5048999;28;19920;-90
2023/04/25 00:23:18;;;;;;;;;;;11.80;99.90;;;;;;5033559;28;20052;-89
2023/04/25 00:25:47;;;;;;;11.18;9.13;;;11.80;99.90;;;;;;5033224;28;19916;-89
2023/04/25 00:28:13;;;;;;;13.15;10.13;;;11.70;99.90;;;;;;5032108;28;20083;-88
2023/04/25 00:30:40;;;;;;;;;;;11.70;99.90;;;;;;5049056;28;20030;-90
2023/04/25 00:33:06;;;;;;;11.48;9.55;;;11.70;99.90;;;;;;5048996;28;19909;-90
2023/04/25 00:35:32;;;;;;;13.38;11.23;;;11.60;99.90;;;;;;5031894;28;20044;-89
2023/04/25 00:37:58;;;;;;;;;;;11.60;99.90;;;;;;5033432;28;20021;-91
2023/04/25 00:40:23;;;;;;;11.00;9.15;;;11.60;99.90;;;;;;5046681;28;20301;-92
2023/04/25 00:42:51;;;;;;;12.02;10.60;;;11.60;99.90;;;;;;5029528;28;20029;-90
2023/04/25 00:45:17;;;;;;;13.57;11.77;;;11.50;99.90;;;;;;5048630;28;20049;-91
2023/04/25 00:47:43;;;;;;;14.07;11.13;;;11.50;99.90;;;;;;5048643;28;20041;-91
2023/04/25 00:50:10;;;;;;;15.13;11.40;;;11.40;99.90;;;;;;5048440;28;20026;-91
2023/04/25 00:52:42;;;;;;;13.52;11.60;;;11.40;99.90;;;;;;5033192;28;20025;-90
2023/04/25 00:55:09;;;;;;;13.85;11.20;;;11.40;99.90;;;;;;5032912;28;20034;-91
2023/04/25 00:57:35;;;;;;;18.75;13.32;;;11.40;99.90;;;;;;5048277;28;20050;-89
2023/04/25 01:00:00;;;;;;;;;;;11.40;99.90;;;;;;5048762;28;20438;-90
2023/04/25 01:02:26;;;;;;;14.88;11.95;;;11.40;99.90;;;;;;5048229;28;20365;-90
2023/04/25 01:04:53;;;;;;;17.73;11.38;;;11.40;99.90;;;;;;5048702;28;20029;-90
2023/04/25 01:07:18;;;;;;;12.60;10.57;;;11.40;99.90;;;;;;5048986;28;20022;-90
2023/04/25 01:09:45;;;;;;;;;;;11.30;99.90;;;;;;5048604;28;20375;-91
2023/04/25 01:12:12;;;;;;;15.57;11.05;;;11.30;99.90;;;;;;5048328;28;20374;-90
2023/04/25 01:14:38;;;;;;;17.38;12.60;;;11.30;99.90;;;;;;5048513;28;20033;-89
2023/04/25 01:17:04;;;;;;;15.20;11.73;;;11.30;99.90;;;;;;5048184;28;20029;-90
2023/04/25 01:19:29;;;;;;;;;;;11.30;99.90;;;;;;5048616;28;20044;-89
2023/04/25 01:21:55;;;;;;;14.50;10.63;;;11.20;99.90;;;;;;5048369;28;20374;-90
2023/04/25 01:24:21;;;;;;;;;;;11.20;99.90;;;;;;5048808;28;20112;-90
2023/04/25 01:26:49;;;;;;;13.18;9.95;;;11.10;99.90;;;;;;5047915;28;19905;-91
2023/04/25 01:29:19;;;;;;;12.90;10.95;;;11.10;99.90;;;;;;5031390;28;20429;-91
2023/04/25 01:31:46;;;;;;;11.98;10.48;;;11.10;99.90;;;;;;5049654;28;20036;-90
2023/04/25 01:34:12;;;;;;;13.57;10.85;;;11.10;99.90;;;;;;5048249;28;20018;-89
2023/04/25 01:36:38;;;;;;;15.32;12.85;;;11.10;99.90;;;;;;5048523;28;20113;-91
2023/04/25 01:39:04;;;;;;;;;;;11.20;99.90;;;;;;5033031;28;20060;-90
2023/04/25 01:41:30;;;;;;;13.98;10.98;;;11.20;99.90;;;;;;5048301;28;19942;-91
2023/04/25 01:43:56;;;;;;;;;;;11.20;99.90;;;;;;5048644;28;20025;-91
2023/04/25 01:46:21;;;;;;;15.23;12.45;;;11.20;99.90;;;;;;5048147;28;20072;-92
2023/04/25 01:48:47;;;;;;;;;;;11.20;99.90;;;;;;5047909;28;20060;-90
2023/04/25 01:51:13;;;;;;;12.88;10.80;;;11.20;99.90;;;;;;5047187;28;20328;-91
2023/04/25 01:53:39;;;;;;;10.88;7.60;;;11.30;99.90;;;;;;5049467;28;20029;-90
2023/04/25 01:56:05;;;;;;;9.15;7.38;;;11.30;99.90;;;;;;5034290;28;20021;-91
2023/04/25 01:58:31;;;;;;;;;;;11.40;99.90;;;;;;5034605;28;20525;-91
2023/04/25 02:00:57;;;;;;;12.38;6.93;;;11.40;99.90;;;;;;5051206;28;20378;-89
2023/04/25 02:03:22;;;;;;;;;;;11.50;99.90;;;;;;5035619;28;20099;-89
2023/04/25 02:05:48;;;;;;;7.10;5.28;;;11.50;99.90;;;;;;5051349;28;19999;-91
2023/04/25 02:08:13;;;;;;;;;;;11.50;99.90;;;;;;5035503;28;20026;-90
2023/04/25 02:10:39;;;;;;;6.72;5.13;;;11.50;99.90;;;;;;5051606;28;19913;-91
2023/04/25 02:13:05;;;;;;;;;;;11.50;99.90;;;;;;5034960;28;20116;-90
2023/04/25 02:15:31;;;;;;;6.22;5.63;;;11.50;99.90;;;;;;5050821;28;20263;-91
2023/04/25 02:17:56;;;;;;;;;;;11.50;99.90;;;;;;5035807;28;20041;-90
2023/04/25 02:20:23;;;;;;;9.35;7.53;;;11.50;99.90;;;;;;5050918;28;19917;-90
2023/04/25 02:22:49;;;;;;;10.70;8.25;;;11.50;99.90;;;;;;5034577;28;20025;-89
2023/04/25 02:25:15;;;;;;;;;;;11.50;99.90;;;;;;5036086;28;20052;-91
2023/04/25 02:27:42;;;;;;;6.47;5.45;;;11.40;99.90;;;;;;5050957;28;19950;-90
2023/04/25 02:30:08;;;;;;;8.63;5.45;;;11.40;99.90;;;;;;5034321;28;20498;-92
2023/04/25 02:32:34;;;;;;;6.68;4.88;;;11.40;99.90;;;;;;5034384;28;20085;-90
2023/04/25 02:35:06;;;;;;;;;;;11.40;99.90;;;;;;5034846;28;20094;-90
2023/04/25 02:37:32;;;;;;;6.88;4.38;;;11.50;99.90;;;;;;5051291;28;19916;-91
2023/04/25 02:39:58;;;;;;;6.05;3.85;;;11.40;99.90;;;;;;5035655;28;20061;-90
2023/04/25 02:42:23;;;;;;;;;;;11.40;99.90;;;;;;5034367;28;20379;-90
2023/04/25 02:44:49;;;;;;;4.93;3.63;;;11.40;99.90;;;;;;5050606;28;20305;-91
2023/04/25 02:47:15;;;;;;;;;;;11.40;99.90;;;;;;5034122;28;20049;-89
2023/04/25 02:49:40;;;;;;;5.70;4.88;;;11.40;99.90;;;;;;5052092;28;19959;-91
2023/04/25 02:52:06;;;;;;;;;;;11.40;99.90;;;;;;5035039;28;20030;-90
2023/04/25 02:54:32;;;;;;;9.80;6.35;;;11.40;99.90;;;;;;5050652;28;19909;-90
2023/04/25 02:56:57;;;;;;;;;;;11.40;99.90;;;;;;5034248;28;20061;-90
2023/04/25 02:59:23;;;;;;;5.65;4.30;;;11.40;99.90;;;;;;5050011;28;19905;-90
2023/04/25 03:01:49;;;;;;;;;;;11.40;99.90;;;;;;5033304;28;20056;-91
2023/04/25 03:04:15;;;;;;;6.50;4.63;;;11.30;99.90;;;;;;5047663;28;19959;-90
2023/04/25 03:06:40;;;;;;;;;;;11.30;99.90;;;;;;5033071;28;20036;-90
2023/04/25 03:09:06;;;;;;;3.03;2.50;;;11.30;99.90;;;;;;5050561;28;20289;-91
2023/04/25 03:11:31;;;;;;;;;;;11.40;99.90;;;;;;5034228;28;20052;-90
2023/04/25 03:13:57;;;;;;;3.78;3.00;;;11.30;99.90;;;;;;5050204;28;20007;-90
2023/04/25 03:16:24;;;;;;;;;;;11.40;99.90;;;;;;5033865;28;20029;-89
2023/04/25 03:18:50;;;;;;;4.97;3.83;;;11.40;99.90;;;;;;5050298;28;19905;-89
2023/04/25 03:21:16;;;;;;;4.97;3.67;;;11.40;99.90;;;;;;5033289;28;20080;-89
2023/04/25 03:23:42;;;;;;;4.38;3.22;;;11.40;99.90;;;;;;5033352;28;20052;-89
2023/04/25 03:26:08;;;;;;;;;;;11.40;99.90;;;;;;5033922;28;20091;-90
2023/04/25 03:28:33;;;;;;;4.53;3.13;;;11.40;99.90;;;;;;5049695;28;19950;-90
2023/04/25 03:30:59;;;;;;;4.88;3.95;;;11.40;99.90;;;;;;5034173;28;20025;-90
2023/04/25 03:33:25;;;;;;;7.05;3.65;;;11.40;99.90;;;;;;5032955;28;20030;-90
2023/04/25 03:35:50;;;;;;;;;;;11.30;99.90;;;;;;5033186;28;20110;-90
2023/04/25 03:38:17;;;;;;;5.78;3.80;;;11.40;99.90;;;;;;5049650;28;19905;-89
2023/04/25 03:40:42;;;;;;;3.45;2.60;;;11.30;99.90;;;;;;5032972;28;20042;-90
2023/04/25 03:43:08;;;;;;;;;;;11.30;99.90;;;;;;5050192;28;20022;-90
2023/04/25 03:45:34;;;;;;;4.50;3.45;;;11.40;99.90;;;;;;5049518;28;19904;-91
2023/04/25 03:48:00;;;;;;;;;;;11.40;99.90;;;;;;5050161;28;20029;-90
2023/04/25 03:50:25;;;;;;;3.80;3.00;;;11.40;99.90;;;;;;5049022;28;19905;-90
2023/04/25 03:52:51;;;;;;;;;;;11.40;99.90;;;;;;5032056;28;20030;-88
2023/04/25 03:55:16;;;;;;;4.00;3.45;;;11.40;99.90;;;;;;5048849;28;19916;-87
2023/04/25 03:57:42;;;;;;;;;;;11.40;99.90;;;;;;5032639;28;20045;-91
2023/04/25 04:00:09;;;;;;;4.03;3.00;;;11.40;99.90;;;;;;5048944;28;19928;-91
2023/04/25 04:02:37;;;;;;;4.45;3.22;;;11.40;99.90;;;;;;5032862;28;20072;-92
2023/04/25 04:05:03;;;;;;;4.47;2.92;;;11.40;99.90;;;;;;5032380;28;20030;-92
2023/04/25 04:07:29;;;;;;;3.42;2.08;;;11.40;99.90;;;;;;5032425;28;20108;-91
2023/04/25 04:09:55;;;;;;;;;;;11.40;99.90;;;;;;5034631;28;20045;-91
2023/04/25 04:12:20;;;;;;;2.58;1.70;;;11.40;99.90;;;;;;5049094;28;19970;-91
2023/04/25 04:14:46;;;;;;;;;;;11.30;99.90;;;;;;5032907;28;20079;-90
2023/04/25 04:17:11;;;;;;;2.95;1.85;;;11.40;99.90;;;;;;5048503;28;19913;-91
2023/04/25 04:19:37;;;;;;;;;;;11.30;99.90;;;;;;5032751;28;20025;-90
2023/04/25 04:22:03;;;;;;;5.13;2.55;;;11.30;99.90;;;;;;5048406;28;19909;-89
2023/04/25 04:24:28;;;;;;;;;;;11.30;99.90;;;;;;5032525;28;20036;-91
2023/04/25 04:26:54;;;;;;;3.70;2.50;;;11.30;99.90;;;;;;5049116;28;19912;-90
2023/04/25 04:29:20;;;;;;;3.67;2.05;;;11.30;99.90;;;;;;5032109;28;20022;-90
2023/04/25 04:31:50;;;;;;;3.13;2.20;;;11.30;99.90;;;;;;5031946;28;20052;-90
2023/04/25 04:34:18;;;;;;;2.50;1.58;;;11.30;99.90;;;;;;5031970;28;20520;-88
2023/04/25 04:36:45;;;;;;;3.58;1.80;;;11.30;99.90;;;;;;5034773;28;20107;-90
2023/04/25 04:39:12;;;;;;;2.50;1.60;;;11.30;99.90;;;;;;5031703;28;20025;-90
2023/04/25 04:41:38;;;;;;;2.63;2.22;;;11.40;99.90;;;;;;5032114;28;20124;-90
2023/04/25 04:44:04;;;;;;;;;;;11.40;99.90;;;;;;5032485;28;20108;-88
2023/04/25 04:46:37;;;;;;;2.28;1.50;;;11.50;99.90;;;;;;5048276;28;20507;-90
2023/04/25 04:49:05;;;;;;;2.63;1.58;;;11.50;99.90;;;;;;5033271;28;20035;-90
2023/04/25 04:51:31;;;;;;;2.15;1.40;;;11.50;99.90;;;;;;5035140;28;20037;-90
2023/04/25 04:53:58;;;;;;;;;;;11.60;99.90;;;;;;5032112;28;20348;-90
2023/04/25 04:56:25;;;;;;;1.92;1.30;;;11.60;99.90;;;;;;5048139;28;19909;-89
2023/04/25 04:58:52;;;;;;;2.58;1.38;;;11.70;99.90;;;;;;5048442;28;20095;-89
2023/04/25 05:01:18;;;;;;;5.57;1.70;;;11.70;99.90;;;;;;5031458;28;20037;-90
2023/04/25 05:03:43;;;;;;;;;;;11.80;99.90;;;;;;5031824;28;20426;-90
2023/04/25 05:06:09;;;;;;;4.20;1.42;;;11.80;99.90;;;;;;5047629;28;19905;-89
2023/04/25 05:08:35;;;;;;;1.50;1.02;;;11.80;99.90;;;;;;5031356;28;20124;-90
2023/04/25 05:11:01;;;;;;;;;;;11.90;99.90;;;;;;5032730;28;20029;-89
2023/04/25 05:13:26;;;;;;;1.65;0.90;;;11.90;99.90;;;;;;5048347;28;19905;-90
2023/04/25 05:15:52;;;;;;;;;;;11.90;99.90;;;;;;5032078;28;20037;-89
2023/04/25 05:18:17;;;;;;;2.15;1.20;;;11.90;99.90;;;;;;5047988;28;19905;-89
2023/04/25 05:20:43;;;;;;;;;;;11.90;99.90;;;;;;5031992;28;20631;-89
2023/04/25 05:23:08;;;;;;;2.20;1.33;;;12.00;99.90;;;;;;5046380;28;19912;-89
2023/04/25 05:25:34;;;;;;;;;;;12.00;99.90;;;;;;5029636;28;20561;-89
2023/04/25 05:28:00;;;;;;;2.70;1.48;;;12.00;99.90;;;;;;5046664;28;19951;-89
2023/04/25 05:30:25;;;;;;;;;;;12.10;99.90;;;;;;5035871;28;20490;-90
2023/04/25 05:32:51;;;;;;;2.05;1.10;;;12.10;99.90;;;;;;5052110;28;19908;-90
2023/04/25 05:35:17;;;;;;;2.22;1.17;;;12.20;99.90;;;;;;5035420;28;20132;-90
2023/04/25 05:37:42;;;;;;;;;;;12.30;99.90;;;;;;5035837;28;20029;-90
2023/04/25 05:40:08;;;;;;;2.38;0.60;;;12.30;99.90;;;;;;5051850;28;20396;-89
2023/04/25 05:42:34;;;;;;;1.52;0.90;;;12.40;99.90;;;;;;5035371;28;20097;-90
2023/04/25 05:45:00;;;;;;;;;;;12.40;99.90;;;;;;5035582;28;20025;-90
2023/04/25 05:47:26;;;;;;;4.50;0.85;;;12.50;99.90;;;;;;5051883;28;20324;-88
2023/04/25 05:49:52;;;;;;;2.10;0.95;;;12.40;99.90;;;;;;5035229;28;20489;-90
2023/04/25 05:52:18;;;;;;;1.60;0.70;;;12.40;99.90;;;;;;5034977;28;20021;-90
2023/04/25 05:54:44;;;;;;;;;;;12.40;99.90;;;;;;5035442;28;20128;-90
2023/04/25 05:57:22;;;;;;;1.10;0.60;;;12.40;99.90;;;;;;5051340;28;19916;-90
2023/04/25 05:59:47;;;;;;;1.30;0.80;;;12.40;99.90;;;;;;5051713;28;20083;-91
2023/04/25 06:02:13;;;;;;;;;;;12.50;99.90;;;;;;5034876;28;20033;-89
2023/04/25 06:04:38;;;;;;;1.20;0.65;;;12.40;99.90;;;;;;5051352;28;20007;-89
2023/04/25 06:07:04;;;;;;;;;;;12.40;99.90;;;;;;5035252;28;20031;-89
2023/04/25 06:09:30;;;;;;;1.45;0.65;;;12.50;99.90;;;;;;5051506;28;20012;-90
2023/04/25 06:11:55;;;;;;;;;;;12.50;99.90;;;;;;5035004;28;20032;-88
2023/04/25 06:14:21;;;;;;;4.15;1.00;;;12.60;99.90;;;;;;5051283;28;19905;-90
2023/04/25 06:16:46;;;;;;;;;;;12.60;99.90;;;;;;5034865;28;20422;-89
2023/04/25 06:19:12;;;;;;;1.00;0.60;;;12.60;99.90;;;;;;5051330;28;19905;-90
2023/04/25 06:21:37;;;;;;;;;;;12.70;99.90;;;;;;5034793;28;20053;-90
2023/04/25 06:24:03;;;;;;;1.33;0.50;;;12.80;99.90;;;;;;5035815;28;20009;-89
2023/04/25 06:26:29;;;;;;;;;;;12.70;99.90;;;;;;5034866;28;20024;-89
2023/04/25 06:28:55;;;;;;;1.67;0.60;;;12.60;99.90;;;;;;5051306;28;19912;-89
2023/04/25 06:31:20;;;;;;;;;;;12.60;99.90;;;;;;5035946;28;20036;-90
2023/04/25 06:33:48;;;;;;;2.25;0.50;;;12.70;99.90;;;;;;5050809;28;19905;-90
2023/04/25 06:36:13;;;;;;;1.20;0.50;;;12.70;99.90;;;;;;5033854;28;20025;-89
2023/04/25 06:38:39;;;;;;;;;;;12.80;99.90;;;;;;5033176;28;20030;-90
2023/04/25 06:41:05;;;;;;;0.65;0.40;;;12.70;99.90;;;;;;5050646;28;19920;-91
2023/04/25 06:43:33;;;;;;;;;;;12.70;99.90;;;;;;5034513;28;20045;-90
2023/04/25 06:46:00;;;;;;;0.88;0.40;;;12.60;99.90;;;;;;5050871;28;19905;-90
2023/04/25 06:48:26;;;;;;;1.33;0.30;;;12.60;99.90;;;;;;5034531;28;20057;-90
2023/04/25 06:50:52;;;;;;;1.27;0.30;;;12.50;99.90;;;;;;5035363;28;20030;-90
2023/04/25 06:53:18;;;;;;;;;;;12.50;99.90;;;;;;5034697;28;20029;-90
2023/04/25 06:55:44;;;;;;;0.70;0.35;;;12.50;99.90;;;;;;5050544;28;19905;-89
2023/04/25 06:58:09;;;;;;;;;;;12.40;99.90;;;;;;5034080;28;20136;-90
2023/04/25 07:00:36;;;;;;;1.00;0.30;;;12.40;99.90;;;;;;5050385;28;19909;-90
2023/04/25 07:03:01;;;;;;;0.43;0.28;;;12.40;99.90;;;;;;5033727;28;20535;-90
2023/04/25 07:05:27;;;;;;;;;;;12.30;99.90;;;;;;5033938;28;20109;-90
2023/04/25 07:07:53;;;;;;;0.57;0.38;;;12.20;99.90;;;;;;5048955;28;20374;-89
2023/04/25 07:10:18;;;;;;;0.55;0.30;;;12.20;99.90;;;;;;5032170;28;20037;-90
2023/04/25 07:12:44;;;;;;;;;;;12.30;99.90;;;;;;5033412;28;20056;-89
2023/04/25 07:15:11;;;;;;;1.27;0.38;;;12.20;99.90;;;;;;5050492;28;19912;-89
2023/04/25 07:17:37;;;;;;;0.20;0.20;;;12.20;99.90;;;;;;5033464;28;20064;-90
2023/04/25 07:20:04;;;;;;;0.40;0.20;;;12.20;99.90;;;;;;5033351;28;20030;-89
2023/04/25 07:22:29;;;;;;;0.52;0.30;;;12.20;99.90;;;;;;5032124;28;20036;-90
2023/04/25 07:24:55;;;;;;;;;;;12.20;99.90;;;;;;5034036;28;20382;-89
2023/04/25 07:27:20;;;;;;;3.13;0.25;;;12.20;99.90;;;;;;5050016;28;20369;-90
2023/04/25 07:29:46;;;;;;;;;;;12.20;99.90;;;;;;5033845;28;20379;-90
2023/04/25 07:32:13;;;;;;;0.60;0.22;;;12.20;99.90;;;;;;5049855;28;19909;-90
2023/04/25 07:34:39;;;;;;;1.85;0.20;;;12.20;99.90;;;;;;5034310;28;20026;-90
2023/04/25 07:37:05;;;;;;;;;;;12.10;99.90;;;;;;5066792;28;20029;-90
2023/04/25 07:39:31;;;;;;;2.17;0.38;;;12.10;99.90;;;;;;5049887;28;19951;-90
2023/04/25 07:41:58;;;;;;;;;;;12.00;99.90;;;;;;5033440;28;20029;-89
2023/04/25 07:44:25;;;;;;;0.73;0.25;;;12.00;99.90;;;;;;5049653;28;19905;-90
2023/04/25 07:46:51;;;;;;;0.50;0.30;;;11.90;99.90;;;;;;5030581;28;20030;-90
2023/04/25 07:49:16;;;;;;;;;;;11.90;99.90;;;;;;5030580;28;20041;-89
2023/04/25 07:51:45;;;;;;;1.23;0.20;;;11.80;99.90;;;;;;5048843;28;19932;-90
2023/04/25 07:54:13;;;;;;;1.02;0.38;;;11.60;99.90;;;;;;5032769;28;20025;-89
2023/04/25 07:56:39;;;;;;;0.20;0.20;;;11.60;99.90;;;;;;5034015;28;20041;-89
2023/04/25 07:59:05;;;;;;;;;;;11.60;99.90;;;;;;5033227;28;20025;-90
2023/04/25 08:01:30;;;;;;;1.27;0.22;;;11.60;99.90;;;;;;5034014;28;19913;-90
2023/04/25 08:03:56;;;;;;;;;;;11.50;99.90;;;;;;5066358;28;20398;-89
2023/04/25 08:06:22;;;;;;;0.68;0.20;;;11.50;99.90;;;;;;5049192;28;19909;-89
2023/04/25 08:08:47;;;;;;;2.15;0.30;;;11.50;99.90;;;;;;5033603;28;20029;-90
2023/04/25 08:11:13;;;;;;;2.65;0.30;;;11.50;99.90;;;;;;5032673;28;20865;-90
2023/04/25 08:13:39;;;;;;;0.98;0.30;;;11.40;99.90;;;;;;5031969;28;20033;-91
2023/04/25 08:16:04;;;;;;;;;;;11.40;99.90;;;;;;5032703;28;20060;-90
2023/04/25 08:18:30;;;;;;;0.30;0.20;;;11.40;99.90;;;;;;5033356;28;19913;-90
2023/04/25 08:20:56;;;;;;;0.75;0.20;;;11.40;99.90;;;;;;5032284;28;20482;-90
2023/04/25 08:23:22;;;;;;;;;;;11.50;99.90;;;;;;5049437;28;20413;-90
2023/04/25 08:25:48;;;;;;;3.42;0.60;;;11.40;99.90;;;;;;5048764;28;19941;-90
2023/04/25 08:28:14;;;;;;;0.90;0.40;;;11.40;99.90;;;;;;5032047;28;20453;-90
2023/04/25 08:30:40;;;;;;;1.15;0.30;;;11.40;99.90;;;;;;5032294;28;20026;-90
2023/04/25 08:33:06;;;;;;;;;;;11.40;99.90;;;;;;5032432;28;20398;-90
2023/04/25 08:35:33;;;;;;;0.93;0.30;;;11.40;99.90;;;;;;5048706;28;19916;-89
2023/04/25 08:37:58;;;;;;;2.55;0.30;;;11.40;99.90;;;;;;5032283;28;20083;-90
2023/04/25 08:40:28;;;;;;;;;;;11.50;99.90;;;;;;5032554;28;20025;-89
2023/04/25 08:42:55;;;;;;;1.52;0.25;;;11.40;99.90;;;;;;5048819;28;19905;-90
2023/04/25 08:45:21;;;;;;;2.95;0.30;;;11.40;99.90;;;;;;5032186;28;20025;-89
2023/04/25 08:47:48;;;;;;;;;;;11.50;99.90;;;;;;5032667;28;20099;-89
2023/04/25 08:50:14;;;;;;;;;;;11.50;99.90;;;;;;5048928;28;20007;-89
2023/04/25 08:52:45;;;;;;;4.03;0.30;;;11.50;99.90;;;;;;5048612;28;19952;-89
2023/04/25 08:55:12;;;;;;;0.55;0.28;;;11.60;99.90;;;;;;5032221;28;20025;-90
2023/04/25 08:57:39;;;;;;;9.43;0.88;;;11.60;99.90;;;;;;5032583;28;20056;-89
2023/04/25 09:00:05;;;;;;;0.68;0.40;;;11.70;99.90;;;;;;5032793;28;20033;-89
2023/04/25 09:02:32;;;;;;;2.50;0.40;;;11.70;99.90;;;;;;5034751;28;20022;-89
2023/04/25 09:04:57;;;;;;;0.88;0.60;;;11.70;99.90;;;;;;5038235;28;20029;-89
2023/04/25 09:07:23;;;;;;;;;;;11.70;99.90;;;;;;5038690;28;20032;-88
2023/04/25 09:09:49;;;;;;;6.03;2.25;;;11.70;99.90;;;;;;5055047;28;20012;-90
2023/04/25 09:12:15;;;;;;;5.97;1.98;;;11.70;99.90;;;;;;5038485;28;20394;-89
2023/04/25 09:14:42;;;;;;;1.60;0.50;;;11.80;99.90;;;;;;5038539;28;20063;-89
2023/04/25 09:17:07;;;;;;;3.10;1.35;;;11.90;99.90;;;;;;5038358;28;20022;-89
2023/04/25 09:19:35;;;;;;;;;;;11.90;99.90;;;;;;5038365;28;20183;-89
2023/04/25 09:22:03;;;;;;;4.15;2.08;;;11.90;99.90;;;;;;5054464;28;19919;-88
2023/04/25 09:24:37;;;;;;;4.30;0.90;;;11.90;99.90;;;;;;5038160;28;20045;-89
2023/04/25 09:27:08;;;;;;;3.47;0.45;;;11.90;99.90;;;;;;5037082;28;20506;-88
2023/04/25 09:29:39;;;;;;;0.82;0.32;;;12.00;99.90;;;;;;5038184;28;20119;-89
2023/04/25 09:32:19;;;;;;;3.45;0.30;;;11.90;99.90;;;;;;5037079;28;20104;-89
2023/04/25 09:34:51;;;;;;;1.02;0.10;;;12.00;99.90;;;;;;5038205;28;20788;-89
2023/04/25 09:37:24;;;;;;;1.10;0.22;;;12.00;99.90;;;;;;5038230;28;20021;-89
2023/04/25 09:39:55;;;;;;;2.03;0.22;;;12.00;99.90;;;;;;5035502;28;20053;-87
2023/04/25 09:42:27;;;;;;;1.80;0.40;;;12.10;99.90;;;;;;5036859;28;20034;-88
2023/04/25 09:44:57;;;;;;;2.17;0.70;;;12.10;99.90;;;;;;5037839;28;20026;-89
2023/04/25 09:47:24;;;;;;;2.15;0.50;;;12.10;99.90;;;;;;5036643;28;20409;-89
2023/04/25 09:49:51;;;;;;;0.38;0.20;;;12.20;99.90;;;;;;5037495;28;20030;-89
2023/04/25 09:52:22;;;;;;;0.45;0.30;;;12.20;99.90;;;;;;5037256;28;20029;-89
2023/04/25 09:54:49;;;;;;;0.28;0.20;;;12.10;99.90;;;;;;5037835;28;20057;-88
2023/04/25 09:57:19;;;;;;;1.25;0.30;;;12.00;99.90;;;;;;5037545;28;20395;-86
2023/04/25 09:59:50;;;;;;;0.95;0.20;;;11.90;99.90;;;;;;5036840;28;20065;-87
2023/04/25 10:02:21;;;;;;;7.20;0.70;;;12.00;99.90;;;;;;5037144;28;20052;-88
2023/04/25 10:04:54;;;;;;;1.60;0.40;;;11.90;99.90;;;;;;5053369;28;20026;-86
2023/04/25 10:07:23;;;;;;;0.73;0.20;;;11.80;99.90;;;;;;5035451;28;20044;-88
2023/04/25 10:09:51;;;;;;;0.35;0.10;;;11.80;99.90;;;;;;5034982;28;20032;-88
2023/04/25 10:12:18;;;;;;;0.35;0.20;;;11.90;99.90;;;;;;5036215;28;20512;-88
2023/04/25 10:14:45;;;;;;;1.10;0.47;;;11.80;99.90;;;;;;5033689;28;20021;-89
2023/04/25 10:17:11;;;;;;;0.95;0.25;;;11.70;99.90;;;;;;5035596;28;20021;-88
2023/04/25 10:19:37;;;;;;;;;;;11.80;99.90;;;;;;5034751;28;20017;-88
2023/04/25 10:22:31;;;;;;;1.05;0.30;;;11.90;99.90;;;;;;5050323;28;19965;-88
2023/04/25 10:24:57;;;;;;;0.70;0.20;;;11.90;99.90;;;;;;5049855;28;20505;-88
2023/04/25 10:27:23;;;;;;;0.98;0.20;;;12.00;99.90;;;;;;5035244;28;20033;-88
2023/04/25 10:30:06;;;;;;;;;;;12.00;99.90;;;;;;5034252;28;20514;-88
2023/04/25 10:32:34;;;;;;;0.45;0.20;;;12.10;99.90;;;;;;5051049;28;19964;-88
2023/04/25 10:35:18;;;;;;;1.88;0.30;;;12.10;99.90;;;;;;5035417;28;20105;-87
2023/04/25 10:38:05;;;;;;;1.00;0.30;;;12.30;99.90;;;;;;5067512;28;20168;-87
2023/04/25 10:40:33;;;;;;;0.47;0.20;;;12.60;99.90;;;;;;5033511;28;20492;-89
2023/04/25 10:43:30;;;;;;;0.20;0.20;;;12.70;99.90;;;;;;5032046;28;20022;-89
2023/04/25 10:45:56;;;;;;;0.50;0.30;;;12.80;99.90;;;;;;5021968;28;20045;-89
2023/04/25 10:48:29;;;;;;;;;;;12.70;99.90;;;;;;5033508;28;20033;-87
2023/04/25 10:51:11;;;;;;;1.17;0.40;;;12.60;99.90;;;;;;5050821;28;19905;-87
2023/04/25 10:53:37;;;;;;;0.50;0.25;;;12.50;99.90;;;;;;5033087;28;20104;-87
2023/04/25 10:56:09;;;;;;;;;;;12.60;99.90;;;;;;5032931;28;20573;-88
2023/04/25 10:58:35;;;;;;;1.13;0.52;;;12.40;99.90;;;;;;5049663;28;20008;-87
2023/04/25 11:01:01;;;;;;;;;;;12.50;99.90;;;;;;5033877;28;20091;-87
2023/04/25 11:03:27;;;;;;;3.88;0.55;;;12.40;99.90;;;;;;5034905;28;19908;-88
2023/04/25 11:05:53;;;;;;;0.55;0.20;;;12.30;99.90;;;;;;5033458;28;20448;-88
2023/04/25 11:08:37;;;;;;;0.60;0.30;;;12.10;99.90;;;;;;5050005;28;20026;-88
2023/04/25 11:11:04;;;;;;;0.85;0.22;;;12.10;99.90;;;;;;5032392;28;20030;-87
2023/04/25 11:13:30;;;;;;;1.08;0.30;;;12.00;99.90;;;;;;5033116;28;20040;-88
2023/04/25 11:15:56;;;;;;;1.77;0.32;;;11.80;99.90;;;;;;5032229;28;20022;-87
2023/04/25 11:18:21;;;;;;;;;;;11.80;99.90;;;;;;5033829;28;20025;-89
2023/04/25 11:20:49;;;;;;;0.95;0.30;;;11.80;99.90;;;;;;5050049;28;20636;-88
2023/04/25 11:23:15;;;;;;;1.60;0.30;;;12.20;99.90;;;;;;5033558;28;20041;-89
2023/04/25 11:25:42;;;;;;;0.43;0.20;;;12.30;99.90;;;;;;5032177;28;20029;-88
2023/04/25 11:28:07;;;;;;;0.80;0.40;;;12.10;99.90;;;;;;5032890;28;20029;-87
2023/04/25 11:30:33;;;;;;;;;;;12.30;99.90;;;;;;5033027;28;20025;-88
2023/04/25 11:32:59;;;;;;;0.93;0.30;;;12.40;99.90;;;;;;5049969;28;19905;-89
2023/04/25 11:35:25;;;;;;;4.57;1.40;;;12.40;99.90;;;;;;5032766;28;20445;-88
2023/04/25 11:37:51;;;;;;;1.08;0.30;;;12.40;99.90;;;;;;5032568;28;20034;-86
2023/04/25 11:40:17;;;;;;;;;;;12.40;99.90;;;;;;5032709;28;20117;-88
2023/04/25 11:42:47;;;;;;;1.20;0.35;;;12.40;99.90;;;;;;5047925;28;19913;-86
2023/04/25 11:45:13;;;;;;;0.65;0.30;;;12.50;99.90;;;;;;5031915;28;20041;-89
2023/04/25 11:47:40;;;;;;;1.73;0.40;;;12.40;99.90;;;;;;5031156;28;20483;-87
2023/04/25 11:50:07;;;;;;;1.45;0.60;;;12.30;99.90;;;;;;5031692;28;20029;-88
2023/04/25 11:52:36;;;;;;;1.85;0.25;;;12.10;99.90;;;;;;5031025;28;20033;-86
2023/04/25 11:55:06;;;;;;;0.40;0.15;;;12.00;99.90;;;;;;5064240;28;20064;-86
2023/04/25 11:57:32;;;;;;;0.38;0.20;;;11.80;99.90;;;;;;5031097;28;20056;-87
2023/04/25 12:00:08;;;;;;;;;;;11.80;99.90;;;;;;5032756;28;20021;-85
2023/04/25 12:02:36;;;;;;;1.13;0.30;;;11.80;99.90;;;;;;5049164;28;19932;-88
2023/04/25 12:05:03;;;;;;;4.30;0.30;;;11.80;99.90;;;;;;5032533;28;20068;-88
2023/04/25 12:07:31;;;;;;;1.65;0.40;;;12.00;99.90;;;;;;5049094;28;20505;-87
2023/04/25 12:09:57;;;;;;;5.45;0.30;;;11.90;99.90;;;;;;5032098;28;20033;-86
2023/04/25 12:12:27;;;;;;;;;;;12.00;99.90;;;;;;5032417;28;20504;-87
2023/04/25 12:14:55;;;;;;;;;;;12.10;99.90;;;;;;5049014;28;19975;-88
2023/04/25 12:17:20;;;;;;;;;;;12.10;99.90;;;;;;5049275;28;19912;-88
2023/04/25 12:19:46;;;;;;;;;;;12.10;99.90;;;;;;5048972;28;19908;-86
2023/04/25 12:22:22;;;;;;;;;;;12.00;99.90;;;;;;5048611;28;19909;-86
2023/04/25 12:24:48;;;;;;;;;;;11.90;99.90;;;;;;5047626;28;19912;-88
2023/04/25 12:27:16;;;;;;;;;;;11.80;99.90;;;;;;5047669;28;19908;-87
2023/04/25 12:29:50;;;;;;;;;;;11.90;99.90;;;;;;5045801;28;19905;-87
2023/04/25 12:32:16;;;;;;;;;;;12.00;99.90;;;;;;5047144;28;19909;-88
2023/04/25 12:34:42;;;;;;;;;;;12.20;99.90;;;;;;5048109;28;19916;-89
2023/04/25 12:37:07;;;;;;;;;;;12.10;99.90;;;;;;5048451;28;19935;-88
2023/04/25 12:39:33;;;;;;;;;;;12.10;99.90;;;;;;5047692;28;19905;-87
2023/04/25 12:41:59;;;;;;;;;;;12.20;99.90;;;;;;5048886;28;19913;-88
2023/04/25 12:44:25;;;;;;;;;;;12.20;99.90;;;;;;5048879;28;19912;-88
2023/04/25 12:46:50;;;;;;;;;;;12.10;99.90;;;;;;5046702;28;19936;-87
2023/04/25 12:49:16;;;;;;;;;;;12.20;99.90;;;;;;5034315;28;19958;-88
2023/04/25 12:51:42;;;;;;;;;;;12.20;99.90;;;;;;5049511;28;19915;-88
2023/04/25 12:54:08;;;;;;;;;;;12.20;99.90;;;;;;5063720;28;20322;-86
2023/04/25 12:56:34;;;;;;;;;;;12.20;99.90;;;;;;5047273;28;19920;-88
2023/04/25 12:58:59;;;;;;;;;;;12.20;99.90;;;;;;5048193;28;19906;-88
2023/04/25 13:01:26;;;;;;;;;;;12.10;99.90;;;;;;5047353;28;20495;-87
2023/04/25 13:03:52;;;;;;;;;;;12.10;99.90;;;;;;5047992;28;19912;-86
2023/04/25 13:06:18;;;;;;;;;;;12.10;99.90;;;;;;5047378;28;19909;-86
2023/04/25 13:08:43;;;;;;;;;;;12.10;99.90;;;;;;5032811;28;19927;-86
2023/04/25 13:11:09;;;;;;;;;;;12.10;99.90;;;;;;5048621;28;19905;-88
2023/04/25 13:13:35;;;;;;;;;;;12.20;99.90;;;;;;5065444;28;19909;-87